createdAt,value
2018-01-22T00:01:09.958Z,2.93
2018-01-22T00:03:38.309Z,2.88
2018-01-22T00:06:06.657Z,2.84
2018-01-22T00:08:35.769Z,2.80
2018-01-22T00:11:04.109Z,2.81
2018-01-22T00:13:32.451Z,2.84
2018-01-22T00:16:00.793Z,2.87
2018-01-22T00:18:29.888Z,2.95
2018-01-22T00:20:59.465Z,2.92
2018-01-22T00:23:27.807Z,2.88
2018-01-22T00:25:56.127Z,2.95
2018-01-22T00:28:24.469Z,2.93
2018-01-22T00:30:52.794Z,3.07
2018-01-22T00:33:21.874Z,3.15
2018-01-22T00:35:50.205Z,2.95
2018-01-22T00:38:18.541Z,2.87
2018-01-22T00:40:46.862Z,3.06
2018-01-22T00:43:15.186Z,3.02
2018-01-22T00:45:43.524Z,3.05
2018-01-22T00:48:11.842Z,3.07
2018-01-22T00:50:40.185Z,3.13
2018-01-22T00:53:08.520Z,3.25
2018-01-22T00:55:36.857Z,3.21
2018-01-22T00:58:05.230Z,3.29
2018-01-22T01:00:33.558Z,3.34
2018-01-22T01:03:01.896Z,3.36
2018-01-22T01:05:30.236Z,3.27
2018-01-22T01:07:58.555Z,3.36
2018-01-22T01:10:26.901Z,3.41
2018-01-22T01:12:55.243Z,3.36
2018-01-22T01:15:23.576Z,3.30
2018-01-22T01:17:51.889Z,3.36
2018-01-22T01:20:20.202Z,3.27
2018-01-22T01:22:48.536Z,3.31
2018-01-22T01:25:18.221Z,3.35
2018-01-22T01:27:46.612Z,3.33
2018-01-22T01:30:14.906Z,3.19
2018-01-22T01:32:44.004Z,3.29
2018-01-22T01:35:12.331Z,3.15
2018-01-22T01:37:40.664Z,3.22
2018-01-22T01:40:09.754Z,3.19
2018-01-22T01:42:38.074Z,3.28
2018-01-22T01:45:06.404Z,3.30
2018-01-22T01:47:35.494Z,3.30
2018-01-22T01:50:05.282Z,3.21
2018-01-22T01:52:33.633Z,3.24
2018-01-22T01:55:01.950Z,3.18
2018-01-22T01:57:30.280Z,3.10
2018-01-22T01:59:58.626Z,3.16
2018-01-22T02:02:26.956Z,3.15
2018-01-22T02:04:55.305Z,3.19
2018-01-22T02:07:23.632Z,3.19
2018-01-22T02:09:51.967Z,3.23
2018-01-22T02:12:20.292Z,3.27
2018-01-22T02:14:48.618Z,3.19
2018-01-22T02:17:16.963Z,3.10
2018-01-22T02:19:46.026Z,3.03
2018-01-22T02:22:14.344Z,3.08
2018-01-22T02:24:42.666Z,2.78
2018-01-22T02:27:10.998Z,3.05
2018-01-22T02:29:40.092Z,3.03
2018-01-22T02:32:08.515Z,3.06
2018-01-22T02:34:36.884Z,3.11
2018-01-22T02:37:05.212Z,3.09
2018-01-22T02:39:33.557Z,3.18
2018-01-22T02:42:03.259Z,3.10
2018-01-22T02:44:31.601Z,3.08
2018-01-22T02:46:59.918Z,3.02
2018-01-22T02:49:28.270Z,2.90
2018-01-22T02:51:56.587Z,3.03
2018-01-22T02:54:24.935Z,2.88
2018-01-22T02:56:53.268Z,2.86
2018-01-22T02:59:21.614Z,2.94
2018-01-22T03:01:49.938Z,2.93
2018-01-22T03:04:18.284Z,2.96
2018-01-22T03:06:46.615Z,3.01
2018-01-22T03:09:14.973Z,3.08
2018-01-22T03:11:43.300Z,3.00
2018-01-22T03:14:11.628Z,3.08
2018-01-22T03:16:40.781Z,3.04
2018-01-22T03:19:09.097Z,3.12
2018-01-22T03:21:38.234Z,3.19
2018-01-22T03:24:07.963Z,3.13
2018-01-22T03:26:36.278Z,3.08
2018-01-22T03:29:04.612Z,3.12
2018-01-22T03:31:32.962Z,3.20
2018-01-22T03:34:01.304Z,3.23
2018-01-22T03:36:29.618Z,3.17
2018-01-22T03:38:58.320Z,3.13
2018-01-22T03:41:26.653Z,3.11
2018-01-22T03:43:55.756Z,3.11
2018-01-22T03:46:24.087Z,2.99
2018-01-22T03:48:53.169Z,2.95
2018-01-22T03:51:22.269Z,2.94
2018-01-22T03:53:50.601Z,2.92
2018-01-22T03:56:18.932Z,2.99
2018-01-22T03:58:47.254Z,2.96
2018-01-22T04:01:15.602Z,2.85
2018-01-22T04:03:43.915Z,2.76
2018-01-22T04:06:12.241Z,2.75
2018-01-22T04:08:40.563Z,2.83
2018-01-22T04:11:08.896Z,2.85
2018-01-22T04:13:37.232Z,2.71
2018-01-22T04:16:05.572Z,2.66
2018-01-22T04:18:33.893Z,2.51
2018-01-22T04:21:02.233Z,2.39
2018-01-22T04:23:31.318Z,2.48
2018-01-22T04:25:59.640Z,2.44
2018-01-22T04:28:28.014Z,2.41
2018-01-22T04:30:56.342Z,2.36
2018-01-22T04:33:25.559Z,2.39
2018-01-22T04:35:53.905Z,2.51
2018-01-22T04:38:22.234Z,2.37
2018-01-22T04:40:50.570Z,2.46
2018-01-22T04:43:18.915Z,2.39
2018-01-22T04:45:47.240Z,2.38
2018-01-22T04:48:16.340Z,2.46
2018-01-22T04:50:45.430Z,2.47
2018-01-22T04:53:13.736Z,2.37
2018-01-22T04:55:42.072Z,2.29
2018-01-22T04:58:10.399Z,2.30
2018-01-22T05:00:38.753Z,2.22
2018-01-22T05:03:08.864Z,2.31
2018-01-22T05:05:37.200Z,2.28
2018-01-22T05:08:05.538Z,2.21
2018-01-22T05:10:33.882Z,2.24
2018-01-22T05:13:02.220Z,2.18
2018-01-22T05:15:30.556Z,2.18
2018-01-22T05:17:59.650Z,2.10
2018-01-22T05:20:29.141Z,2.20
2018-01-22T05:22:57.472Z,2.26
2018-01-22T05:25:25.827Z,2.27
2018-01-22T05:27:54.146Z,2.17
2018-01-22T05:30:22.480Z,2.17
2018-01-22T05:32:50.796Z,2.14
2018-01-22T05:35:19.162Z,2.06
2018-01-22T05:37:47.525Z,2.28
2018-01-22T05:40:15.846Z,2.35
2018-01-22T05:42:44.185Z,2.24
2018-01-22T05:45:12.528Z,2.36
2018-01-22T05:47:40.868Z,2.32
2018-01-22T05:50:09.201Z,2.28
2018-01-22T05:52:37.551Z,2.08
2018-01-22T05:55:05.901Z,2.18
2018-01-22T05:57:34.217Z,2.18
2018-01-22T06:00:03.361Z,2.21
2018-01-22T06:02:32.553Z,2.13
2018-01-22T06:05:00.879Z,2.16
2018-01-22T06:07:30.372Z,2.16
2018-01-22T06:09:58.707Z,2.15
2018-01-22T06:12:27.061Z,2.16
2018-01-22T06:14:55.404Z,2.08
2018-01-22T06:17:23.738Z,2.05
2018-01-22T06:19:52.121Z,2.02
2018-01-22T06:22:20.447Z,1.98
2018-01-22T06:24:48.794Z,2.00
2018-01-22T06:27:17.152Z,1.89
2018-01-22T06:29:45.501Z,1.89
2018-01-22T06:32:13.826Z,1.98
2018-01-22T06:34:42.151Z,1.96
2018-01-22T06:37:10.470Z,1.88
2018-01-22T06:39:38.798Z,1.93
2018-01-22T06:42:07.143Z,1.95
2018-01-22T06:44:35.474Z,1.82
2018-01-22T06:47:03.821Z,1.87
2018-01-22T06:49:32.157Z,1.89
2018-01-22T06:52:01.079Z,1.74
2018-01-22T06:54:29.433Z,1.91
2018-01-22T06:56:58.137Z,1.81
2018-01-22T06:59:26.458Z,1.74
2018-01-22T07:01:54.796Z,1.48
2018-01-22T07:04:23.140Z,1.61
2018-01-22T07:06:51.453Z,1.59
2018-01-22T07:09:19.796Z,1.64
2018-01-22T07:11:48.125Z,1.77
2018-01-22T07:14:16.508Z,1.80
2018-01-22T07:16:45.393Z,1.84
2018-01-22T07:19:15.629Z,1.95
2018-01-22T07:21:44.713Z,2.01
2018-01-22T07:24:13.820Z,1.91
2018-01-22T07:26:42.133Z,1.86
2018-01-22T07:29:10.461Z,1.88
2018-01-22T07:31:38.802Z,1.99
2018-01-22T07:34:07.490Z,1.98
2018-01-22T07:36:36.098Z,2.03
2018-01-22T07:39:04.413Z,2.12
2018-01-22T07:41:32.832Z,2.09
2018-01-22T07:44:01.167Z,2.08
2018-01-22T07:46:30.391Z,2.04
2018-01-22T07:48:58.705Z,2.02
2018-01-22T07:51:27.031Z,2.14
2018-01-22T07:53:55.358Z,2.12
2018-01-22T07:56:23.680Z,2.12
2018-01-22T07:58:52.016Z,2.01
2018-01-22T08:01:20.356Z,2.11
2018-01-22T08:03:48.713Z,2.09
2018-01-22T08:06:17.052Z,2.12
2018-01-22T08:08:45.630Z,2.30
2018-01-22T08:11:14.261Z,2.33
2018-01-22T08:13:42.591Z,2.33
2018-01-22T08:16:10.896Z,2.36
2018-01-22T08:18:40.166Z,2.45
2018-01-22T08:21:08.578Z,2.46
2018-01-22T08:23:37.680Z,2.48
2018-01-22T08:26:06.003Z,2.49
2018-01-22T08:28:34.380Z,2.49
2018-01-22T08:31:02.711Z,2.52
2018-01-22T08:33:31.868Z,2.63
2018-01-22T08:36:00.199Z,2.59
2018-01-22T08:38:28.517Z,2.57
2018-01-22T08:40:56.857Z,2.57
2018-01-22T08:43:25.758Z,2.53
2018-01-22T08:45:54.077Z,2.59
2018-01-22T08:48:22.390Z,2.40
2018-01-22T08:50:50.731Z,2.52
2018-01-22T08:53:19.045Z,2.58
2018-01-22T08:55:47.392Z,2.37
2018-01-22T08:58:15.725Z,2.64
2018-01-22T09:00:44.120Z,2.67
2018-01-22T09:03:12.438Z,2.60
2018-01-22T09:05:41.541Z,2.58
2018-01-22T09:08:09.870Z,2.79
2018-01-22T09:10:38.194Z,2.74
2018-01-22T09:13:07.288Z,2.84
2018-01-22T09:15:35.606Z,2.90
2018-01-22T09:18:03.934Z,2.97
2018-01-22T09:20:33.036Z,2.88
2018-01-22T09:23:02.510Z,3.03
2018-01-22T09:25:30.856Z,2.99
2018-01-22T09:27:59.201Z,3.01
2018-01-22T09:30:28.502Z,3.13
2018-01-22T09:32:56.814Z,3.09
2018-01-22T09:35:25.152Z,3.12
2018-01-22T09:37:53.528Z,3.07
2018-01-22T09:40:22.602Z,3.10
2018-01-22T09:42:50.933Z,3.06
2018-01-22T09:45:19.249Z,2.95
2018-01-22T09:47:47.574Z,2.97
2018-01-22T09:50:15.932Z,2.88
2018-01-22T09:52:45.024Z,2.93
2018-01-22T09:55:13.366Z,3.06
2018-01-22T09:57:41.696Z,3.03
2018-01-22T10:00:10.024Z,3.09
2018-01-22T10:02:38.386Z,3.05
2018-01-22T10:05:06.715Z,3.07
2018-01-22T10:07:35.044Z,3.10
2018-01-22T10:10:03.372Z,2.98
2018-01-22T10:12:31.690Z,2.84
2018-01-22T10:15:00.036Z,2.88
2018-01-22T10:17:29.607Z,2.92
2018-01-22T10:19:57.926Z,3.10
2018-01-22T10:22:26.259Z,3.08
2018-01-22T10:24:54.617Z,3.01
2018-01-22T10:27:22.938Z,2.99
2018-01-22T10:29:51.272Z,2.99
2018-01-22T10:32:19.590Z,2.88
2018-01-22T10:34:48.673Z,2.90
2018-01-22T10:37:16.999Z,3.08
2018-01-22T10:39:45.322Z,3.17
2018-01-22T10:42:13.646Z,3.26
2018-01-22T10:44:41.962Z,3.18
2018-01-22T10:47:10.283Z,3.15
2018-01-22T10:49:38.628Z,3.17
2018-01-22T10:52:06.946Z,3.45
2018-01-22T10:54:35.262Z,3.43
2018-01-22T10:57:03.578Z,3.50
2018-01-22T10:59:31.892Z,3.43
2018-01-22T11:02:00.409Z,3.49
2018-01-22T11:04:28.708Z,3.32
2018-01-22T11:06:57.062Z,3.24
2018-01-22T11:09:25.404Z,3.51
2018-01-22T11:11:53.718Z,3.76
2018-01-22T11:14:22.037Z,3.51
2018-01-22T11:16:51.128Z,3.22
2018-01-22T11:19:20.115Z,3.16
2018-01-22T11:21:48.457Z,3.01
2018-01-22T11:24:16.801Z,2.96
2018-01-22T11:26:45.110Z,3.29
2018-01-22T11:29:14.878Z,3.41
2018-01-22T11:31:43.194Z,3.46
2018-01-22T11:34:11.533Z,3.20
2018-01-22T11:36:41.433Z,3.04
2018-01-22T11:39:10.714Z,3.29
2018-01-22T11:41:39.037Z,3.28
2018-01-22T11:44:07.368Z,3.20
2018-01-22T11:46:35.695Z,3.24
2018-01-22T11:49:04.019Z,3.19
2018-01-22T11:51:32.365Z,3.31
2018-01-22T11:54:00.675Z,3.55
2018-01-22T11:56:29.002Z,3.64
2018-01-22T11:58:57.314Z,3.74
2018-01-22T12:01:25.654Z,3.63
2018-01-22T12:03:53.981Z,3.64
2018-01-22T12:06:22.305Z,3.74
2018-01-22T12:08:50.623Z,3.47
2018-01-22T12:11:18.991Z,3.57
2018-01-22T12:13:47.350Z,3.83
2018-01-22T12:16:16.450Z,3.96
2018-01-22T12:18:44.757Z,4.03
2018-01-22T12:21:13.099Z,4.22
2018-01-22T12:23:41.434Z,4.17
2018-01-22T12:26:10.159Z,4.07
2018-01-22T12:28:38.598Z,3.61
2018-01-22T12:31:07.736Z,3.91
2018-01-22T12:33:36.064Z,4.03
2018-01-22T12:36:04.404Z,3.94
2018-01-22T12:38:32.744Z,3.74
2018-01-22T12:41:01.831Z,3.70
2018-01-22T12:43:30.169Z,3.65
2018-01-22T12:45:58.505Z,3.63
2018-01-22T12:48:26.836Z,3.58
2018-01-22T12:50:55.169Z,3.47
2018-01-22T12:53:23.556Z,3.46
2018-01-22T12:55:51.936Z,3.43
2018-01-22T12:58:20.262Z,3.34
2018-01-22T13:00:48.586Z,3.39
2018-01-22T13:03:16.936Z,3.32
2018-01-22T13:05:45.263Z,3.55
2018-01-22T13:08:13.590Z,3.51
2018-01-22T13:10:41.949Z,3.53
2018-01-22T13:13:10.273Z,3.67
2018-01-22T13:15:38.605Z,3.81
2018-01-22T13:18:06.935Z,3.82
2018-01-22T13:20:35.254Z,3.92
2018-01-22T13:23:03.583Z,3.92
2018-01-22T13:25:37.312Z,4.11
2018-01-22T13:28:05.634Z,4.04
2018-01-22T13:30:33.976Z,4.17
2018-01-22T13:33:02.320Z,4.25
2018-01-22T13:35:30.662Z,4.25
2018-01-22T13:37:59.812Z,4.15
2018-01-22T13:40:33.522Z,3.97
2018-01-22T13:43:01.852Z,3.88
2018-01-22T13:45:30.165Z,3.96
2018-01-22T13:47:58.496Z,3.87
2018-01-22T13:50:26.836Z,4.15
2018-01-22T13:52:55.154Z,4.17
2018-01-22T13:55:24.238Z,4.37
2018-01-22T13:57:53.105Z,4.56
2018-01-22T14:00:21.509Z,4.62
2018-01-22T14:02:51.186Z,4.54
2018-01-22T14:05:19.540Z,4.53
2018-01-22T14:07:47.870Z,4.52
2018-01-22T14:10:16.962Z,4.26
2018-01-22T14:12:45.279Z,4.25
2018-01-22T14:15:13.613Z,4.33
2018-01-22T14:17:41.936Z,4.36
2018-01-22T14:20:10.258Z,4.41
2018-01-22T14:22:38.578Z,4.45
2018-01-22T14:25:06.899Z,4.50
2018-01-22T14:27:35.223Z,4.72
2018-01-22T14:30:03.560Z,4.85
2018-01-22T14:32:31.874Z,4.75
2018-01-22T14:35:00.212Z,4.83
2018-01-22T14:37:28.549Z,4.65
2018-01-22T14:39:56.892Z,4.84
2018-01-22T14:42:25.210Z,4.72
2018-01-22T14:44:53.542Z,4.81
2018-01-22T14:47:21.881Z,4.80
2018-01-22T14:49:50.209Z,4.89
2018-01-22T14:52:18.544Z,5.02
2018-01-22T14:54:46.883Z,4.97
2018-01-22T14:57:15.208Z,5.13
2018-01-22T14:59:43.530Z,5.19
2018-01-22T15:02:12.609Z,5.38
2018-01-22T15:04:40.922Z,5.49
2018-01-22T15:07:09.236Z,5.51
2018-01-22T15:09:37.575Z,5.46
2018-01-22T15:12:05.909Z,5.49
2018-01-22T15:14:34.249Z,5.45
2018-01-22T15:17:02.595Z,5.50
2018-01-22T15:19:30.934Z,5.53
2018-01-22T15:21:59.276Z,5.36
2018-01-22T15:24:27.616Z,5.34
2018-01-22T15:26:56.705Z,5.43
2018-01-22T15:29:25.027Z,5.14
2018-01-22T15:31:53.364Z,4.91
2018-01-22T15:34:22.455Z,4.47
2018-01-22T15:36:50.783Z,4.65
2018-01-22T15:39:19.106Z,4.72
2018-01-22T15:41:48.196Z,4.91
2018-01-22T15:44:16.525Z,4.94
2018-01-22T15:46:44.864Z,4.97
2018-01-22T15:49:13.960Z,4.77
2018-01-22T15:51:43.230Z,4.84
2018-01-22T15:54:11.557Z,4.92
2018-01-22T15:56:39.890Z,4.89
2018-01-22T15:59:08.228Z,4.88
2018-01-22T16:01:36.562Z,4.92
2018-01-22T16:04:04.873Z,4.58
2018-01-22T16:06:33.226Z,4.29
2018-01-22T16:09:01.543Z,4.32
2018-01-22T16:11:29.880Z,4.16
2018-01-22T16:13:58.975Z,4.33
2018-01-22T16:16:27.293Z,4.38
2018-01-22T16:18:55.605Z,4.14
2018-01-22T16:21:23.934Z,4.31
2018-01-22T16:23:52.270Z,4.40
2018-01-22T16:26:20.599Z,4.47
2018-01-22T16:28:48.926Z,4.00
2018-01-22T16:31:17.264Z,4.10
2018-01-22T16:33:45.585Z,3.94
2018-01-22T16:36:14.679Z,4.10
2018-01-22T16:38:43.027Z,4.26
2018-01-22T16:41:11.413Z,4.32
2018-01-22T16:43:39.753Z,4.27
2018-01-22T16:46:08.239Z,4.36
2018-01-22T16:48:36.587Z,4.47
2018-01-22T16:51:04.911Z,4.45
2018-01-22T16:53:33.269Z,4.51
2018-01-22T16:56:01.613Z,4.60
2018-01-22T16:58:30.694Z,4.32
2018-01-22T17:00:59.027Z,4.22
2018-01-22T17:03:27.339Z,4.26
2018-01-22T17:05:55.670Z,4.32
2018-01-22T17:08:24.047Z,4.34
2018-01-22T17:10:52.563Z,4.39
2018-01-22T17:13:20.906Z,4.40
2018-01-22T17:15:49.353Z,4.44
2018-01-22T17:18:18.544Z,4.35
2018-01-22T17:20:47.665Z,4.53
2018-01-22T17:23:15.983Z,4.53
2018-01-22T17:25:44.400Z,4.52
2018-01-22T17:28:13.042Z,4.48
2018-01-22T17:30:41.485Z,4.45
2018-01-22T17:33:10.099Z,4.53
2018-01-22T17:35:38.576Z,4.34
2018-01-22T17:38:06.924Z,4.26
2018-01-22T17:40:35.700Z,4.36
2018-01-22T17:43:04.607Z,4.47
2018-01-22T17:45:33.321Z,4.55
2018-01-22T17:48:01.751Z,4.53
2018-01-22T17:50:30.476Z,4.40
2018-01-22T17:52:59.317Z,4.51
2018-01-22T17:55:28.563Z,4.57
2018-01-22T17:57:57.466Z,4.58
2018-01-22T18:00:27.286Z,4.72
2018-01-22T18:02:55.796Z,4.64
2018-01-22T18:05:27.756Z,4.77
2018-01-22T18:07:57.462Z,4.80
2018-01-22T18:10:27.341Z,4.77
2018-01-22T18:12:57.125Z,4.80
2018-01-22T18:15:27.023Z,4.56
2018-01-22T18:17:56.818Z,4.59
2018-01-22T18:20:26.602Z,4.76
2018-01-22T18:22:56.613Z,4.81
2018-01-22T18:25:26.466Z,4.76
2018-01-22T18:27:56.470Z,4.81
2018-01-22T18:30:26.444Z,4.65
2018-01-22T18:32:57.172Z,4.66
2018-01-22T18:35:27.094Z,4.71
2018-01-22T18:37:56.942Z,3.81
2018-01-22T18:40:26.756Z,4.04
2018-01-22T18:42:56.853Z,4.15
2018-01-22T18:45:27.308Z,4.17
2018-01-22T18:47:57.194Z,4.29
2018-01-22T18:50:27.006Z,4.00
2018-01-22T18:52:56.872Z,3.95
2018-01-22T18:55:26.800Z,4.21
2018-01-22T18:57:56.804Z,4.31
2018-01-22T19:00:26.640Z,4.35
2018-01-22T19:02:56.471Z,4.38
2018-01-22T19:05:27.198Z,4.36
2018-01-22T19:07:57.004Z,4.33
2018-01-22T19:10:26.862Z,4.25
2018-01-22T19:12:57.660Z,4.29
2018-01-22T19:15:27.574Z,4.05
2018-01-22T19:17:58.126Z,4.27
2018-01-22T19:20:28.592Z,4.34
2018-01-22T19:22:59.238Z,4.34
2018-01-22T19:25:29.129Z,4.27
2018-01-22T19:27:58.940Z,4.30
2018-01-22T19:30:29.351Z,4.17
2018-01-22T19:32:59.295Z,4.21
2018-01-22T19:35:29.174Z,4.24
2018-01-22T19:37:59.433Z,4.02
2018-01-22T19:40:30.169Z,4.15
2018-01-22T19:43:00.066Z,4.24
2018-01-22T19:45:29.961Z,4.32
2018-01-22T19:47:59.867Z,4.35
2018-01-22T19:50:30.398Z,4.27
2018-01-22T19:53:00.487Z,4.16
2018-01-22T19:55:30.347Z,4.21
2018-01-22T19:58:00.342Z,4.16
2018-01-22T20:00:30.263Z,4.11
2018-01-22T20:03:00.206Z,3.77
2018-01-22T20:05:30.997Z,3.72
2018-01-22T20:08:00.858Z,3.77
2018-01-22T20:10:30.777Z,3.91
2018-01-22T20:13:00.620Z,3.83
2018-01-22T20:15:30.508Z,4.13
2018-01-22T20:18:00.495Z,4.19
2018-01-22T20:20:30.377Z,4.42
2018-01-22T20:23:01.215Z,4.50
2018-01-22T20:25:31.127Z,4.47
2018-01-22T20:28:02.536Z,4.38
2018-01-22T20:30:32.674Z,4.55
2018-01-22T20:33:03.321Z,4.41
2018-01-22T20:35:33.313Z,4.61
2018-01-22T20:38:04.117Z,4.50
2018-01-22T20:40:34.184Z,4.36
2018-01-22T20:43:05.089Z,4.14
2018-01-22T20:45:35.050Z,4.25
2018-01-22T20:48:05.872Z,4.25
2018-01-22T20:50:35.784Z,4.16
2018-01-22T20:53:06.936Z,4.35
2018-01-22T20:55:36.829Z,4.51
2018-01-22T20:58:07.800Z,4.76
2018-01-22T21:00:37.793Z,4.91
2018-01-22T21:03:07.815Z,4.90
2018-01-22T21:05:37.629Z,5.05
2018-01-22T21:08:07.683Z,5.11
2018-01-22T21:10:37.663Z,5.02
2018-01-22T21:13:07.587Z,4.99
2018-01-22T21:15:37.492Z,4.96
2018-01-22T21:18:07.368Z,5.15
2018-01-22T21:20:37.231Z,5.26
2018-01-22T21:23:07.175Z,5.33
2018-01-22T21:25:37.100Z,5.19
2018-01-22T21:28:06.990Z,5.26
2018-01-22T21:30:36.912Z,5.31
2018-01-22T21:33:07.554Z,5.25
2018-01-22T21:35:37.425Z,5.23
2018-01-22T21:38:07.540Z,5.19
2018-01-22T21:40:37.489Z,5.23
2018-01-22T21:43:08.270Z,5.33
2018-01-22T21:45:38.128Z,5.22
2018-01-22T21:48:08.182Z,5.28
2018-01-22T21:50:38.008Z,5.29
2018-01-22T21:53:07.908Z,5.25
2018-01-22T21:55:38.435Z,5.24
2018-01-22T21:58:08.268Z,5.21
2018-01-22T22:00:38.931Z,5.17
2018-01-22T22:03:08.835Z,4.86
2018-01-22T22:05:38.543Z,4.76
2018-01-22T22:08:08.358Z,4.84
2018-01-22T22:10:38.137Z,4.85
2018-01-22T22:13:07.841Z,4.84
2018-01-22T22:15:37.129Z,4.82
2018-01-22T22:18:06.166Z,4.74
2018-01-22T22:20:34.866Z,4.79
2018-01-22T22:23:03.668Z,4.83
2018-01-22T22:25:32.166Z,4.98
2018-01-22T22:28:00.538Z,5.13
2018-01-22T22:30:28.859Z,4.96
2018-01-22T22:32:57.201Z,5.10
2018-01-22T22:35:25.558Z,5.06
2018-01-22T22:37:53.883Z,5.16
2018-01-22T22:40:22.985Z,5.19
2018-01-22T22:42:51.321Z,5.21
2018-01-22T22:45:19.669Z,5.48
2018-01-22T22:47:48.048Z,5.49
2018-01-22T22:50:16.413Z,5.53
2018-01-22T22:52:44.757Z,5.75
2018-01-22T22:55:13.096Z,5.48
2018-01-22T22:57:41.433Z,5.61
2018-01-22T23:00:10.551Z,5.69
2018-01-22T23:02:38.884Z,5.75
2018-01-22T23:05:07.226Z,5.82
2018-01-22T23:07:35.562Z,5.70
2018-01-22T23:10:03.891Z,5.61
2018-01-22T23:12:32.204Z,5.63
2018-01-22T23:15:00.545Z,5.69
2018-01-22T23:17:28.873Z,5.65
2018-01-22T23:19:57.198Z,5.62
2018-01-22T23:22:25.534Z,5.78
2018-01-22T23:24:53.853Z,5.64
2018-01-22T23:27:22.174Z,5.81
2018-01-22T23:29:50.508Z,5.73
2018-01-22T23:32:21.363Z,6.03
2018-01-22T23:34:49.723Z,5.67
2018-01-22T23:37:18.099Z,5.86
2018-01-22T23:39:46.431Z,5.94
2018-01-22T23:42:14.756Z,5.80
2018-01-22T23:44:43.104Z,5.83
2018-01-22T23:47:11.436Z,5.81
2018-01-22T23:49:39.772Z,5.60
2018-01-22T23:52:08.109Z,5.65
2018-01-22T23:54:36.444Z,5.21
2018-01-22T23:57:04.785Z,5.31
2018-01-22T23:59:33.102Z,5.46
